This is the latest recevied weather packets stored in our database for station/object SV2HRW-10. If no packets are shown the sender has not sent any weather packets the latest 10 day(s).
| Time | Temp. | Humidity | Pressure | Rain* | Wind** | Luminosity | Snow |
|---|---|---|---|---|---|---|---|
| 1787411550 | 32.22° C | 46% | 1010.2 hPa | - | - | - | - |
| 1787411518 | 32.22° C | 46% | 1010.2 hPa | - | - | - | - |
| 1787410641 | 33.89° C | 41% | 1010.2 hPa | - | - | - | - |
| 1787409740 | 32.22° C | 45% | 1010.3 hPa | - | - | - | - |
| 1787408875 | 32.78° C | 41% | 1010.4 hPa | - | - | - | - |
| 1787408839 | 32.78° C | 41% | 1010.4 hPa | - | - | - | - |
| 1787407938 | 33.89° C | 41% | 1010.2 hPa | - | - | - | - |
| 1787407068 | 32.78° C | 42% | 1010.4 hPa | - | - | - | - |
| 1787407036 | 32.78° C | 42% | 1010.4 hPa | - | - | - | - |
| 1787406168 | 33.33° C | 36% | 1010.3 hPa | - | - | - | - |
| 1787406136 | 33.33° C | 36% | 1010.3 hPa | - | - | - | - |
| 1787405235 | 31.67° C | 43% | 1010.3 hPa | - | - | - | - |
| 1787404334 | 33.33° C | 40% | 1010.4 hPa | - | - | - | - |
| 1787403433 | 32.78° C | 40% | 1010.4 hPa | - | - | - | - |
| 1787402574 | 34.44° C | 35% | 1010.4 hPa | - | - | - | - |
| 1787402532 | 34.44° C | 35% | 1010.4 hPa | - | - | - | - |
| 1787401631 | 34.44° C | 35% | 1010.6 hPa | - | - | - | - |
| 1787400730 | 33.33° C | 37% | 1010.7 hPa | - | - | - | - |
| 1787399829 | 31.67° C | 41% | 1010.9 hPa | - | - | - | - |
| 1787398928 | 33.89° C | 36% | 1011 hPa | - | - | - | - |
| 1787398089 | 33.89° C | 37% | 1011 hPa | - | - | - | - |
| 1787398028 | 33.89° C | 37% | 1011 hPa | - | - | - | - |
| 1787397159 | 34.44° C | 36% | 1011.1 hPa | - | - | - | - |
| 1787397125 | 34.44° C | 36% | 1011.1 hPa | - | - | - | - |
| 1787396224 | 33.89° C | 38% | 1011.2 hPa | - | - | - | - |
* Rain since midnight (hover to see other rain measurements)
** Current wind speed in m/s (hover to see current wind gust speed)